No particular awareness of the weather is required.    There are no Weather-warnings


Meteo18 Weather Cam more information Meteo18 Weather Cam


Thunder radar more information blitzortung!


Rain radar more information rain snow radar


Visit our other weather sites:

Template documentation
and downloads

And another site



Weather Underground History page Text

Daily Summary for August 20, 2017 Units:  Both    English   Metric
« Previous Day
Next Day »
Daily Weekly Monthly Yearly Custom
  High: Low: Average:
Temperature: 72.5 °F /  22.5 °C 52 °F /  11.1 °C 62.6 °F /  17 °C
Dew Point: 54.3 °F /  12.4 °C 48.7 °F /  9.3 °C 51.1 °F /  10.6 °C
Humidity: 92 % 45 % 68 %
Wind Speed: 8 mph /  12.9 km/h - 1.3 mph /  2.1 km/h
Wind Gust: 10 mph /  16.1 km/h - -
Wind:- - SW
Pressure: 30.4 in /  1027.7 hPa 30.3 in /  1024.9 hPa -
Precipitation: 0 in /  0.0 mm    
Historical Graphs
 
 
Tabular Data for August 20, 2017
Time Temperature Dew Point Pressure Wind Wind Speed Wind Gust Humidity Rainfall Rate (Hourly)
00:02 54.7 °F /  12.6 °C 50 °F /  10.0 °C 30.3 in /  1025.3 hPa Calm     84 % 0 in /  0.0 mm
00:12 54.9 °F /  12.7 °C 50.2 °F /  10.1 °C 30.3 in /  1025.3 hPa Calm     84 % 0 in /  0.0 mm
00:17 54.9 °F /  12.7 °C 50.2 °F /  10.1 °C 30.3 in /  1025.3 hPa Calm     84 % 0 in /  0.0 mm
00:22 54.9 °F /  12.7 °C 50.4 °F /  10.2 °C 30.3 in /  1025.3 hPa Calm     85 % 0 in /  0.0 mm
00:27 54.9 °F /  12.7 °C 50.4 °F /  10.2 °C 30.3 in /  1025.3 hPa Calm     85 % 0 in /  0.0 mm
00:32 54.9 °F /  12.7 °C 50.4 °F /  10.2 °C 30.3 in /  1024.9 hPa Calm     85 % 0 in /  0.0 mm
00:42 55 °F /  12.8 °C 50.4 °F /  10.2 °C 30.3 in /  1024.9 hPa Calm     84 % 0 in /  0.0 mm
00:47 55 °F /  12.8 °C 50.4 °F /  10.2 °C 30.3 in /  1024.9 hPa Calm   1 mph /  1.6 km/h 84 % 0 in /  0.0 mm
00:57 56.3 °F /  13.5 °C 50.2 °F /  10.1 °C 30.3 in /  1024.9 hPa Calm   2 mph /  3.2 km/h 80 % 0 in /  0.0 mm
01:02 57 °F /  13.9 °C 50.9 °F /  10.5 °C 30.3 in /  1024.9 hPa Calm   2 mph /  3.2 km/h 80 % 0 in /  0.0 mm
01:07 57.6 °F /  14.2 °C 50.7 °F /  10.4 °C 30.3 in /  1024.9 hPa Calm   2 mph /  3.2 km/h 78 % 0 in /  0.0 mm
01:12 57.9 °F /  14.4 °C 50.7 °F /  10.4 °C 30.3 in /  1024.9 hPa NW 1 mph /  1.6 km/h 2 mph /  3.2 km/h 77 % 0 in /  0.0 mm
01:17 58.3 °F /  14.6 °C 50.7 °F /  10.4 °C 30.3 in /  1024.9 hPa NW 1 mph /  1.6 km/h 2 mph /  3.2 km/h 76 % 0 in /  0.0 mm
01:22 58.6 °F /  14.8 °C 51.1 °F /  10.6 °C 30.3 in /  1024.9 hPa Calm   2 mph /  3.2 km/h 76 % 0 in /  0.0 mm
01:27 58.8 °F /  14.9 °C 51.3 °F /  10.7 °C 30.3 in /  1024.9 hPa Calm   2 mph /  3.2 km/h 76 % 0 in /  0.0 mm
01:32 58.8 °F /  14.9 °C 50.9 °F /  10.5 °C 30.3 in /  1024.9 hPa Calm   2 mph /  3.2 km/h 75 % 0 in /  0.0 mm
01:42 58.8 °F /  14.9 °C 50.9 °F /  10.5 °C 30.3 in /  1024.9 hPa Calm   2 mph /  3.2 km/h 75 % 0 in /  0.0 mm
01:52 58.6 °F /  14.8 °C 50.7 °F /  10.4 °C 30.3 in /  1024.9 hPa NW 1 mph /  1.6 km/h 2 mph /  3.2 km/h 75 % 0 in /  0.0 mm
01:57 58.5 °F /  14.7 °C 50.5 °F /  10.3 °C 30.3 in /  1024.9 hPa WNW 1 mph /  1.6 km/h 2 mph /  3.2 km/h 75 % 0 in /  0.0 mm
02:02 58.5 °F /  14.7 °C 50.5 °F /  10.3 °C 30.3 in /  1024.9 hPa Calm   2 mph /  3.2 km/h 75 % 0 in /  0.0 mm
02:07 58.1 °F /  14.5 °C 50.5 °F /  10.3 °C 30.3 in /  1024.9 hPa Calm   2 mph /  3.2 km/h 76 % 0 in /  0.0 mm
02:12 57.7 °F /  14.3 °C 50.5 °F /  10.3 °C 30.3 in /  1024.9 hPa Calm   2 mph /  3.2 km/h 77 % 0 in /  0.0 mm
02:22 56.7 °F /  13.7 °C 50.5 °F /  10.3 °C 30.3 in /  1024.9 hPa Calm   1 mph /  1.6 km/h 80 % 0 in /  0.0 mm
02:27 56.5 °F /  13.6 °C 50.4 °F /  10.2 °C 30.3 in /  1024.9 hPa WNW 2 mph /  3.2 km/h 2 mph /  3.2 km/h 80 % 0 in /  0.0 mm
02:32 56.5 °F /  13.6 °C 50.4 °F /  10.2 °C 30.3 in /  1024.9 hPa WNW 1 mph /  1.6 km/h 2 mph /  3.2 km/h 80 % 0 in /  0.0 mm
02:37 56.3 °F /  13.5 °C 50.5 °F /  10.3 °C 30.3 in /  1024.9 hPa Calm   3 mph /  4.8 km/h 81 % 0 in /  0.0 mm
02:42 56.3 °F /  13.5 °C 50.5 °F /  10.3 °C 30.3 in /  1024.9 hPa Calm   3 mph /  4.8 km/h 81 % 0 in /  0.0 mm
02:47 56.7 °F /  13.7 °C 50.5 °F /  10.3 °C 30.3 in /  1024.9 hPa NNW 2 mph /  3.2 km/h 2 mph /  3.2 km/h 80 % 0 in /  0.0 mm
02:52 56.8 °F /  13.8 °C 50.4 °F /  10.2 °C 30.3 in /  1024.9 hPa Calm   2 mph /  3.2 km/h 79 % 0 in /  0.0 mm
03:02 56.7 °F /  13.7 °C 50.2 °F /  10.1 °C 30.3 in /  1024.9 hPa Calm   3 mph /  4.8 km/h 79 % 0 in /  0.0 mm
03:07 56.5 °F /  13.6 °C 50.4 °F /  10.2 °C 30.3 in /  1024.9 hPa NNE 3 mph /  4.8 km/h 3 mph /  4.8 km/h 80 % 0 in /  0.0 mm
03:12 56.1 °F /  13.4 °C 50.4 °F /  10.2 °C 30.3 in /  1024.9 hPa NNW 2 mph /  3.2 km/h 3 mph /  4.8 km/h 81 % 0 in /  0.0 mm
03:17 56.5 °F /  13.6 °C 50.7 °F /  10.4 °C 30.3 in /  1024.9 hPa NNE 2 mph /  3.2 km/h 3 mph /  4.8 km/h 81 % 0 in /  0.0 mm
03:22 56.5 °F /  13.6 °C 50.4 °F /  10.2 °C 30.3 in /  1024.9 hPa WNW 1 mph /  1.6 km/h 4 mph /  6.4 km/h 80 % 0 in /  0.0 mm
03:27 56.3 °F /  13.5 °C 50.5 °F /  10.3 °C 30.3 in /  1024.9 hPa West 1 mph /  1.6 km/h 4 mph /  6.4 km/h 81 % 0 in /  0.0 mm
03:32 56.1 °F /  13.4 °C 50.4 °F /  10.2 °C 30.3 in /  1024.9 hPa NW 1 mph /  1.6 km/h 4 mph /  6.4 km/h 81 % 0 in /  0.0 mm
03:37 55.9 °F /  13.3 °C 50.5 °F /  10.3 °C 30.3 in /  1025.3 hPa NW 1 mph /  1.6 km/h 3 mph /  4.8 km/h 82 % 0 in /  0.0 mm
03:42 55.9 °F /  13.3 °C 50.5 °F /  10.3 °C 30.3 in /  1025.3 hPa WNW 2 mph /  3.2 km/h 3 mph /  4.8 km/h 82 % 0 in /  0.0 mm
03:47 55.8 °F /  13.2 °C 50.7 °F /  10.4 °C 30.3 in /  1025.3 hPa Calm   3 mph /  4.8 km/h 83 % 0 in /  0.0 mm
03:52 55.8 °F /  13.2 °C 50.7 °F /  10.4 °C 30.3 in /  1025.3 hPa Calm   3 mph /  4.8 km/h 83 % 0 in /  0.0 mm
03:57 55.6 °F /  13.1 °C 50.5 °F /  10.3 °C 30.3 in /  1025.3 hPa Calm   3 mph /  4.8 km/h 83 % 0 in /  0.0 mm
04:02 55.6 °F /  13.1 °C 50.9 °F /  10.5 °C 30.3 in /  1025.3 hPa NW 1 mph /  1.6 km/h 3 mph /  4.8 km/h 84 % 0 in /  0.0 mm
04:12 55.2 °F /  12.9 °C 50.5 °F /  10.3 °C 30.3 in /  1024.9 hPa Calm   2 mph /  3.2 km/h 84 % 0 in /  0.0 mm
04:17 55 °F /  12.8 °C 50.4 °F /  10.2 °C 30.3 in /  1024.9 hPa Calm   2 mph /  3.2 km/h 84 % 0 in /  0.0 mm
04:22 55 °F /  12.8 °C 50.5 °F /  10.3 °C 30.3 in /  1024.9 hPa Calm   1 mph /  1.6 km/h 85 % 0 in /  0.0 mm
04:27 55 °F /  12.8 °C 50.5 °F /  10.3 °C 30.3 in /  1025.3 hPa NW 1 mph /  1.6 km/h 1 mph /  1.6 km/h 85 % 0 in /  0.0 mm
04:32 55 °F /  12.8 °C 50.5 °F /  10.3 °C 30.3 in /  1025.3 hPa Calm   1 mph /  1.6 km/h 85 % 0 in /  0.0 mm
04:42 54.7 °F /  12.6 °C 50.2 °F /  10.1 °C 30.3 in /  1025.3 hPa North 1 mph /  1.6 km/h 2 mph /  3.2 km/h 85 % 0 in /  0.0 mm
04:47 54.3 °F /  12.4 °C 49.8 °F /  9.9 °C 30.3 in /  1025.3 hPa North 1 mph /  1.6 km/h 1 mph /  1.6 km/h 85 % 0 in /  0.0 mm
04:52 54.1 °F /  12.3 °C 50 °F /  10.0 °C 30.3 in /  1025.3 hPa NNW 2 mph /  3.2 km/h 2 mph /  3.2 km/h 86 % 0 in /  0.0 mm
05:02 54.1 °F /  12.3 °C 50 °F /  10.0 °C 30.3 in /  1025.3 hPa NW 2 mph /  3.2 km/h 2 mph /  3.2 km/h 86 % 0 in /  0.0 mm
05:17 54.3 °F /  12.4 °C 50.2 °F /  10.1 °C 30.3 in /  1025.6 hPa NNW 2 mph /  3.2 km/h 3 mph /  4.8 km/h 86 % 0 in /  0.0 mm
05:22 54.7 °F /  12.6 °C 50.5 °F /  10.3 °C 30.3 in /  1025.6 hPa NNW 1 mph /  1.6 km/h 3 mph /  4.8 km/h 86 % 0 in /  0.0 mm
05:32 54.5 °F /  12.5 °C 50.4 °F /  10.2 °C 30.3 in /  1025.6 hPa NNW 1 mph /  1.6 km/h 3 mph /  4.8 km/h 86 % 0 in /  0.0 mm
05:42 54.1 °F /  12.3 °C 50 °F /  10.0 °C 30.3 in /  1025.6 hPa North 1 mph /  1.6 km/h 3 mph /  4.8 km/h 86 % 0 in /  0.0 mm
05:47 54.1 °F /  12.3 °C 50 °F /  10.0 °C 30.3 in /  1025.6 hPa NNW 1 mph /  1.6 km/h 2 mph /  3.2 km/h 86 % 0 in /  0.0 mm
05:52 54.1 °F /  12.3 °C 50 °F /  10.0 °C 30.3 in /  1025.6 hPa Calm   2 mph /  3.2 km/h 86 % 0 in /  0.0 mm
06:02 54 °F /  12.2 °C 50.2 °F /  10.1 °C 30.3 in /  1025.6 hPa Calm   2 mph /  3.2 km/h 87 % 0 in /  0.0 mm
06:12 53.8 °F /  12.1 °C 50 °F /  10.0 °C 30.3 in /  1025.6 hPa Calm   2 mph /  3.2 km/h 87 % 0 in /  0.0 mm
06:17 53.8 °F /  12.1 °C 50.4 °F /  10.2 °C 30.3 in /  1025.6 hPa NNW 1 mph /  1.6 km/h 2 mph /  3.2 km/h 88 % 0 in /  0.0 mm
06:22 53.6 °F /  12.0 °C 50.2 °F /  10.1 °C 30.3 in /  1025.6 hPa North 1 mph /  1.6 km/h 2 mph /  3.2 km/h 88 % 0 in /  0.0 mm
06:27 53.8 °F /  12.1 °C 50.4 °F /  10.2 °C 30.3 in /  1025.6 hPa NNW 2 mph /  3.2 km/h 3 mph /  4.8 km/h 88 % 0 in /  0.0 mm
06:32 53.8 °F /  12.1 °C 50 °F /  10.0 °C 30.3 in /  1025.6 hPa Calm   3 mph /  4.8 km/h 87 % 0 in /  0.0 mm
06:42 52.9 °F /  11.6 °C 49.1 °F /  9.5 °C 30.3 in /  1025.6 hPa Calm   3 mph /  4.8 km/h 87 % 0 in /  0.0 mm
06:47 52.5 °F /  11.4 °C 49.5 °F /  9.7 °C 30.3 in /  1025.6 hPa Calm   1 mph /  1.6 km/h 89 % 0 in /  0.0 mm
06:52 52.5 °F /  11.4 °C 49.5 °F /  9.7 °C 30.3 in /  1025.6 hPa Calm   1 mph /  1.6 km/h 89 % 0 in /  0.0 mm
06:57 52.3 °F /  11.3 °C 49.3 °F /  9.6 °C 30.3 in /  1025.6 hPa WNW 1 mph /  1.6 km/h 1 mph /  1.6 km/h 89 % 0 in /  0.0 mm
07:02 52.2 °F /  11.2 °C 49.6 °F /  9.8 °C 30.3 in /  1025.6 hPa Calm   1 mph /  1.6 km/h 91 % 0 in /  0.0 mm
07:12 52.3 °F /  11.3 °C 49.3 °F /  9.6 °C 30.3 in /  1026.0 hPa WNW 1 mph /  1.6 km/h 2 mph /  3.2 km/h 89 % 0 in /  0.0 mm
07:17 52 °F /  11.1 °C 49.5 °F /  9.7 °C 30.3 in /  1026.0 hPa WNW 1 mph /  1.6 km/h 1 mph /  1.6 km/h 91 % 0 in /  0.0 mm
07:22 52 °F /  11.1 °C 49.5 °F /  9.7 °C 30.3 in /  1026.0 hPa Calm   1 mph /  1.6 km/h 91 % 0 in /  0.0 mm
07:32 52.2 °F /  11.2 °C 49.6 °F /  9.8 °C 30.3 in /  1026.0 hPa WNW 1 mph /  1.6 km/h 2 mph /  3.2 km/h 91 % 0 in /  0.0 mm
07:42 52.7 °F /  11.5 °C 50.4 °F /  10.2 °C 30.3 in /  1026.0 hPa Calm   2 mph /  3.2 km/h 92 % 0 in /  0.0 mm
07:52 53.4 °F /  11.9 °C 50.5 °F /  10.3 °C 30.3 in /  1026.3 hPa Calm   2 mph /  3.2 km/h 90 % 0 in /  0.0 mm
08:02 54 °F /  12.2 °C 51.1 °F /  10.6 °C 30.3 in /  1026.3 hPa Calm   2 mph /  3.2 km/h 90 % 0 in /  0.0 mm
08:12 54.9 °F /  12.7 °C 51.6 °F /  10.9 °C 30.3 in /  1026.6 hPa Calm   6 mph /  9.7 km/h 89 % 0 in /  0.0 mm
08:17 55.2 °F /  12.9 °C 51.8 °F /  11.0 °C 30.3 in /  1026.6 hPa Calm   2 mph /  3.2 km/h 88 % 0 in /  0.0 mm
08:22 55.6 °F /  13.1 °C 51.8 °F /  11.0 °C 30.3 in /  1026.6 hPa WNW 1 mph /  1.6 km/h 2 mph /  3.2 km/h 87 % 0 in /  0.0 mm
08:27 55.8 °F /  13.2 °C 52 °F /  11.1 °C 30.3 in /  1026.6 hPa Calm   3 mph /  4.8 km/h 87 % 0 in /  0.0 mm
08:32 56.1 °F /  13.4 °C 52 °F /  11.1 °C 30.3 in /  1026.6 hPa West 1 mph /  1.6 km/h 3 mph /  4.8 km/h 86 % 0 in /  0.0 mm
08:42 57.4 °F /  14.1 °C 52.9 °F /  11.6 °C 30.3 in /  1026.6 hPa WNW 2 mph /  3.2 km/h 3 mph /  4.8 km/h 85 % 0 in /  0.0 mm
08:47 57.6 °F /  14.2 °C 52.7 °F /  11.5 °C 30.3 in /  1026.6 hPa Calm   3 mph /  4.8 km/h 84 % 0 in /  0.0 mm
08:52 57.9 °F /  14.4 °C 52.7 °F /  11.5 °C 30.3 in /  1026.6 hPa Calm   3 mph /  4.8 km/h 83 % 0 in /  0.0 mm
09:02 58.8 °F /  14.9 °C 53.4 °F /  11.9 °C 30.3 in /  1027.0 hPa NNE 4 mph /  6.4 km/h 4 mph /  6.4 km/h 82 % 0 in /  0.0 mm
09:12 59.2 °F /  15.1 °C 53.4 °F /  11.9 °C 30.3 in /  1027.0 hPa NNW 4 mph /  6.4 km/h 5 mph /  8.0 km/h 81 % 0 in /  0.0 mm
09:17 59.5 °F /  15.3 °C 53.4 °F /  11.9 °C 30.3 in /  1027.0 hPa North 4 mph /  6.4 km/h 6 mph /  9.7 km/h 80 % 0 in /  0.0 mm
09:22 59.9 °F /  15.5 °C 53.8 °F /  12.1 °C 30.3 in /  1027.3 hPa North 3 mph /  4.8 km/h 6 mph /  9.7 km/h 80 % 0 in /  0.0 mm
09:32 60.4 °F /  15.8 °C 54.3 °F /  12.4 °C 30.3 in /  1027.0 hPa NNE 7 mph /  11.3 km/h 7 mph /  11.3 km/h 80 % 0 in /  0.0 mm
09:42 61.3 °F /  16.3 °C 53.4 °F /  11.9 °C 30.3 in /  1027.3 hPa NE 3 mph /  4.8 km/h 8 mph /  12.9 km/h 75 % 0 in /  0.0 mm
09:52 61.5 °F /  16.4 °C 53.2 °F /  11.8 °C 30.3 in /  1027.3 hPa ENE 2 mph /  3.2 km/h 8 mph /  12.9 km/h 74 % 0 in /  0.0 mm
10:02 62.2 °F /  16.8 °C 53.4 °F /  11.9 °C 30.3 in /  1027.3 hPa ENE 4 mph /  6.4 km/h 8 mph /  12.9 km/h 73 % 0 in /  0.0 mm
10:12 62.4 °F /  16.9 °C 52.5 °F /  11.4 °C 30.4 in /  1027.7 hPa ENE 7 mph /  11.3 km/h 7 mph /  11.3 km/h 70 % 0 in /  0.0 mm
10:17 62.2 °F /  16.8 °C 52 °F /  11.1 °C 30.3 in /  1027.3 hPa NE 2 mph /  3.2 km/h 9 mph /  14.5 km/h 69 % 0 in /  0.0 mm
10:22 62.8 °F /  17.1 °C 52.5 °F /  11.4 °C 30.4 in /  1027.7 hPa NE 5 mph /  8.0 km/h 9 mph /  14.5 km/h 69 % 0 in /  0.0 mm
10:32 63 °F /  17.2 °C 53.1 °F /  11.7 °C 30.4 in /  1027.7 hPa East 4 mph /  6.4 km/h 8 mph /  12.9 km/h 70 % 0 in /  0.0 mm
10:37 63.1 °F /  17.3 °C 52.9 °F /  11.6 °C 30.4 in /  1027.7 hPa ENE 2 mph /  3.2 km/h 8 mph /  12.9 km/h 69 % 0 in /  0.0 mm
10:42 63.3 °F /  17.4 °C 52.5 °F /  11.4 °C 30.4 in /  1027.7 hPa ENE 1 mph /  1.6 km/h 8 mph /  12.9 km/h 68 % 0 in /  0.0 mm
10:47 63.3 °F /  17.4 °C 52.5 °F /  11.4 °C 30.4 in /  1027.7 hPa West 2 mph /  3.2 km/h 6 mph /  9.7 km/h 68 % 0 in /  0.0 mm
10:52 63.5 °F /  17.5 °C 52.7 °F /  11.5 °C 30.4 in /  1027.7 hPa NNE 5 mph /  8.0 km/h 6 mph /  9.7 km/h 68 % 0 in /  0.0 mm
10:57 63.7 °F /  17.6 °C 52.5 °F /  11.4 °C 30.4 in /  1027.7 hPa NE 4 mph /  6.4 km/h 6 mph /  9.7 km/h 67 % 0 in /  0.0 mm
11:02 63.7 °F /  17.6 °C 52.2 °F /  11.2 °C 30.4 in /  1027.7 hPa NNE 3 mph /  4.8 km/h 6 mph /  9.7 km/h 66 % 0 in /  0.0 mm
11:12 64.9 °F /  18.3 °C 52.9 °F /  11.6 °C 30.4 in /  1027.7 hPa ENE 1 mph /  1.6 km/h 7 mph /  11.3 km/h 65 % 0 in /  0.0 mm
11:17 64.9 °F /  18.3 °C 52.5 °F /  11.4 °C 30.4 in /  1027.7 hPa ESE 1 mph /  1.6 km/h 5 mph /  8.0 km/h 64 % 0 in /  0.0 mm
11:22 64.9 °F /  18.3 °C 52 °F /  11.1 °C 30.4 in /  1027.7 hPa East 4 mph /  6.4 km/h 5 mph /  8.0 km/h 63 % 0 in /  0.0 mm
11:32 64.9 °F /  18.3 °C 52.9 °F /  11.6 °C 30.4 in /  1027.7 hPa NNE 2 mph /  3.2 km/h 7 mph /  11.3 km/h 65 % 0 in /  0.0 mm
11:42 65.1 °F /  18.4 °C 52.2 °F /  11.2 °C 30.4 in /  1027.7 hPa Calm   7 mph /  11.3 km/h 63 % 0 in /  0.0 mm
11:47 65.7 °F /  18.7 °C 52.3 °F /  11.3 °C 30.4 in /  1027.7 hPa ENE 1 mph /  1.6 km/h 7 mph /  11.3 km/h 62 % 0 in /  0.0 mm
11:52 65.7 °F /  18.7 °C 51.8 °F /  11.0 °C 30.4 in /  1027.7 hPa ENE 1 mph /  1.6 km/h 7 mph /  11.3 km/h 61 % 0 in /  0.0 mm
12:02 66.2 °F /  19.0 °C 52.3 °F /  11.3 °C 30.4 in /  1027.7 hPa Calm   7 mph /  11.3 km/h 61 % 0 in /  0.0 mm
12:12 68.2 °F /  20.1 °C 52.3 °F /  11.3 °C 30.4 in /  1027.7 hPa South 1 mph /  1.6 km/h 5 mph /  8.0 km/h 57 % 0 in /  0.0 mm
12:17 68.5 °F /  20.3 °C 52.7 °F /  11.5 °C 30.4 in /  1027.7 hPa Calm   3 mph /  4.8 km/h 57 % 0 in /  0.0 mm
12:22 68.7 °F /  20.4 °C 51.4 °F /  10.8 °C 30.4 in /  1027.7 hPa West 4 mph /  6.4 km/h 4 mph /  6.4 km/h 54 % 0 in /  0.0 mm
12:32 68.4 °F /  20.2 °C 52 °F /  11.1 °C 30.4 in /  1027.7 hPa Calm   4 mph /  6.4 km/h 56 % 0 in /  0.0 mm
12:42 67.5 °F /  19.7 °C 50.7 °F /  10.4 °C 30.4 in /  1027.7 hPa NNW 4 mph /  6.4 km/h 4 mph /  6.4 km/h 55 % 0 in /  0.0 mm
12:47 67.3 °F /  19.6 °C 51.1 °F /  10.6 °C 30.3 in /  1027.3 hPa East 1 mph /  1.6 km/h 7 mph /  11.3 km/h 56 % 0 in /  0.0 mm
12:52 67.3 °F /  19.6 °C 50.5 °F /  10.3 °C 30.3 in /  1027.3 hPa Calm   7 mph /  11.3 km/h 55 % 0 in /  0.0 mm
12:57 67.5 °F /  19.7 °C 51.3 °F /  10.7 °C 30.3 in /  1027.3 hPa Calm   7 mph /  11.3 km/h 56 % 0 in /  0.0 mm
13:02 68 °F /  20.0 °C 51.8 °F /  11.0 °C 30.3 in /  1027.0 hPa West 2 mph /  3.2 km/h 7 mph /  11.3 km/h 56 % 0 in /  0.0 mm
13:12 67.1 °F /  19.5 °C 50.9 °F /  10.5 °C 30.3 in /  1027.0 hPa NW 1 mph /  1.6 km/h 3 mph /  4.8 km/h 56 % 0 in /  0.0 mm
13:17 66.7 °F /  19.3 °C 51.1 °F /  10.6 °C 30.3 in /  1027.0 hPa NW 2 mph /  3.2 km/h 5 mph /  8.0 km/h 57 % 0 in /  0.0 mm
13:22 67.5 °F /  19.7 °C 51.6 °F /  10.9 °C 30.3 in /  1027.0 hPa SE 1 mph /  1.6 km/h 5 mph /  8.0 km/h 57 % 0 in /  0.0 mm
13:32 67.6 °F /  19.8 °C 50.4 °F /  10.2 °C 30.3 in /  1027.0 hPa Calm   5 mph /  8.0 km/h 54 % 0 in /  0.0 mm
13:42 68.2 °F /  20.1 °C 51.8 °F /  11.0 °C 30.3 in /  1027.0 hPa Calm   3 mph /  4.8 km/h 56 % 0 in /  0.0 mm
13:47 68.9 °F /  20.5 °C 51.6 °F /  10.9 °C 30.3 in /  1027.0 hPa Calm   2 mph /  3.2 km/h 54 % 0 in /  0.0 mm
13:52 69.1 °F /  20.6 °C 51.3 °F /  10.7 °C 30.3 in /  1027.0 hPa Calm   2 mph /  3.2 km/h 53 % 0 in /  0.0 mm
13:57 68.5 °F /  20.3 °C 50.7 °F /  10.4 °C 30.3 in /  1027.0 hPa WNW 2 mph /  3.2 km/h 2 mph /  3.2 km/h 53 % 0 in /  0.0 mm
14:02 68.5 °F /  20.3 °C 51.8 °F /  11.0 °C 30.3 in /  1027.0 hPa WSW 2 mph /  3.2 km/h 2 mph /  3.2 km/h 55 % 0 in /  0.0 mm
14:07 68.5 °F /  20.3 °C 50.7 °F /  10.4 °C 30.3 in /  1027.0 hPa Calm   4 mph /  6.4 km/h 53 % 0 in /  0.0 mm
14:12 68.4 °F /  20.2 °C 50 °F /  10.0 °C 30.3 in /  1027.0 hPa Calm   2 mph /  3.2 km/h 52 % 0 in /  0.0 mm
14:17 68.5 °F /  20.3 °C 51.8 °F /  11.0 °C 30.3 in /  1027.0 hPa WNW 2 mph /  3.2 km/h 3 mph /  4.8 km/h 55 % 0 in /  0.0 mm
14:22 68.5 °F /  20.3 °C 50.7 °F /  10.4 °C 30.3 in /  1027.0 hPa Calm   4 mph /  6.4 km/h 53 % 0 in /  0.0 mm
14:32 68.2 °F /  20.1 °C 50.9 °F /  10.5 °C 30.3 in /  1027.0 hPa WSW 4 mph /  6.4 km/h 4 mph /  6.4 km/h 54 % 0 in /  0.0 mm
14:37 68.4 °F /  20.2 °C 51.6 °F /  10.9 °C 30.3 in /  1027.0 hPa WNW 1 mph /  1.6 km/h 5 mph /  8.0 km/h 55 % 0 in /  0.0 mm
14:42 68.9 °F /  20.5 °C 51.1 °F /  10.6 °C 30.3 in /  1027.0 hPa SW 1 mph /  1.6 km/h 4 mph /  6.4 km/h 53 % 0 in /  0.0 mm
14:52 70 °F /  21.1 °C 50.5 °F /  10.3 °C 30.3 in /  1027.0 hPa WNW 4 mph /  6.4 km/h 9 mph /  14.5 km/h 50 % 0 in /  0.0 mm
14:57 69.6 °F /  20.9 °C 51.8 °F /  11.0 °C 30.3 in /  1027.0 hPa WNW 2 mph /  3.2 km/h 9 mph /  14.5 km/h 53 % 0 in /  0.0 mm
15:02 70 °F /  21.1 °C 49.5 °F /  9.7 °C 30.3 in /  1027.0 hPa WNW 4 mph /  6.4 km/h 9 mph /  14.5 km/h 48 % 0 in /  0.0 mm
15:12 70.9 °F /  21.6 °C 50.7 °F /  10.4 °C 30.3 in /  1027.0 hPa North 2 mph /  3.2 km/h 8 mph /  12.9 km/h 49 % 0 in /  0.0 mm
15:17 71.6 °F /  22.0 °C 52.5 °F /  11.4 °C 30.3 in /  1027.0 hPa NW 3 mph /  4.8 km/h 8 mph /  12.9 km/h 51 % 0 in /  0.0 mm
15:22 71.1 °F /  21.7 °C 50.9 °F /  10.5 °C 30.3 in /  1026.6 hPa North 5 mph /  8.0 km/h 10 mph /  16.1 km/h 49 % 0 in /  0.0 mm
15:32 70.2 °F /  21.2 °C 51.3 °F /  10.7 °C 30.3 in /  1026.6 hPa North 8 mph /  12.9 km/h 10 mph /  16.1 km/h 51 % 0 in /  0.0 mm
15:42 70.7 °F /  21.5 °C 51.1 °F /  10.6 °C 30.3 in /  1026.6 hPa North 4 mph /  6.4 km/h 9 mph /  14.5 km/h 50 % 0 in /  0.0 mm
15:52 70.9 °F /  21.6 °C 49.6 °F /  9.8 °C 30.3 in /  1026.6 hPa West 2 mph /  3.2 km/h 7 mph /  11.3 km/h 47 % 0 in /  0.0 mm
15:57 70.7 °F /  21.5 °C 50 °F /  10.0 °C 30.3 in /  1026.6 hPa West 2 mph /  3.2 km/h 7 mph /  11.3 km/h 48 % 0 in /  0.0 mm
16:02 70.3 °F /  21.3 °C 49.1 °F /  9.5 °C 30.3 in /  1026.6 hPa Calm   7 mph /  11.3 km/h 47 % 0 in /  0.0 mm
16:07 70.5 °F /  21.4 °C 48.7 °F /  9.3 °C 30.3 in /  1026.6 hPa West 1 mph /  1.6 km/h 8 mph /  12.9 km/h 46 % 0 in /  0.0 mm
16:12 71.2 °F /  21.8 °C 50.5 °F /  10.3 °C 30.3 in /  1026.6 hPa NW 2 mph /  3.2 km/h 8 mph /  12.9 km/h 48 % 0 in /  0.0 mm
16:17 70.9 °F /  21.6 °C 50.2 °F /  10.1 °C 30.3 in /  1026.6 hPa NW 4 mph /  6.4 km/h 8 mph /  12.9 km/h 48 % 0 in /  0.0 mm
16:22 70.7 °F /  21.5 °C 50 °F /  10.0 °C 30.3 in /  1026.6 hPa WNW 1 mph /  1.6 km/h 8 mph /  12.9 km/h 48 % 0 in /  0.0 mm
16:32 71.2 °F /  21.8 °C 50.5 °F /  10.3 °C 30.3 in /  1026.6 hPa WSW 1 mph /  1.6 km/h 8 mph /  12.9 km/h 48 % 0 in /  0.0 mm
16:37 71.4 °F /  21.9 °C 50.7 °F /  10.4 °C 30.3 in /  1026.6 hPa Calm   8 mph /  12.9 km/h 48 % 0 in /  0.0 mm
16:42 71.8 °F /  22.1 °C 51.1 °F /  10.6 °C 30.3 in /  1026.3 hPa WSW 2 mph /  3.2 km/h 8 mph /  12.9 km/h 48 % 0 in /  0.0 mm
16:47 72 °F /  22.2 °C 50.7 °F /  10.4 °C 30.3 in /  1026.3 hPa NNE 4 mph /  6.4 km/h 8 mph /  12.9 km/h 47 % 0 in /  0.0 mm
16:52 71.6 °F /  22.0 °C 49.6 °F /  9.8 °C 30.3 in /  1026.3 hPa WSW 1 mph /  1.6 km/h 7 mph /  11.3 km/h 46 % 0 in /  0.0 mm
17:02 72 °F /  22.2 °C 50 °F /  10.0 °C 30.3 in /  1026.3 hPa NNE 1 mph /  1.6 km/h 6 mph /  9.7 km/h 46 % 0 in /  0.0 mm
17:12 72 °F /  22.2 °C 50.7 °F /  10.4 °C 30.3 in /  1026.3 hPa WNW 5 mph /  8.0 km/h 8 mph /  12.9 km/h 47 % 0 in /  0.0 mm
17:17 71.8 °F /  22.1 °C 50.5 °F /  10.3 °C 30.3 in /  1026.3 hPa West 6 mph /  9.7 km/h 8 mph /  12.9 km/h 47 % 0 in /  0.0 mm
17:22 72 °F /  22.2 °C 49.5 °F /  9.7 °C 30.3 in /  1026.3 hPa West 2 mph /  3.2 km/h 10 mph /  16.1 km/h 45 % 0 in /  0.0 mm
17:27 72.1 °F /  22.3 °C 49.6 °F /  9.8 °C 30.3 in /  1026.0 hPa Calm   10 mph /  16.1 km/h 45 % 0 in /  0.0 mm
17:32 72.5 °F /  22.5 °C 50 °F /  10.0 °C 30.3 in /  1026.0 hPa West 1 mph /  1.6 km/h 10 mph /  16.1 km/h 45 % 0 in /  0.0 mm
17:42 72.1 °F /  22.3 °C 50.2 °F /  10.1 °C 30.3 in /  1026.0 hPa NNE 5 mph /  8.0 km/h 7 mph /  11.3 km/h 46 % 0 in /  0.0 mm
17:47 72 °F /  22.2 °C 49.5 °F /  9.7 °C 30.3 in /  1026.0 hPa Calm   8 mph /  12.9 km/h 45 % 0 in /  0.0 mm
17:52 72.1 °F /  22.3 °C 50.2 °F /  10.1 °C 30.3 in /  1026.0 hPa Calm   8 mph /  12.9 km/h 46 % 0 in /  0.0 mm
17:57 72 °F /  22.2 °C 50 °F /  10.0 °C 30.3 in /  1026.0 hPa WNW 2 mph /  3.2 km/h 8 mph /  12.9 km/h 46 % 0 in /  0.0 mm
18:02 71.2 °F /  21.8 °C 50 °F /  10.0 °C 30.3 in /  1026.0 hPa North 4 mph /  6.4 km/h 8 mph /  12.9 km/h 47 % 0 in /  0.0 mm
18:12 70.5 °F /  21.4 °C 50.9 °F /  10.5 °C 30.3 in /  1026.0 hPa NNE 3 mph /  4.8 km/h 7 mph /  11.3 km/h 50 % 0 in /  0.0 mm
18:17 70.9 °F /  21.6 °C 50.2 °F /  10.1 °C 30.3 in /  1026.0 hPa NE 4 mph /  6.4 km/h 7 mph /  11.3 km/h 48 % 0 in /  0.0 mm
18:22 71.2 °F /  21.8 °C 50.5 °F /  10.3 °C 30.3 in /  1026.0 hPa NNW 3 mph /  4.8 km/h 6 mph /  9.7 km/h 48 % 0 in /  0.0 mm
18:27 71.4 °F /  21.9 °C 50.2 °F /  10.1 °C 30.3 in /  1026.0 hPa Calm   6 mph /  9.7 km/h 47 % 0 in /  0.0 mm
18:32 72 °F /  22.2 °C 50.7 °F /  10.4 °C 30.3 in /  1026.0 hPa ENE 4 mph /  6.4 km/h 7 mph /  11.3 km/h 47 % 0 in /  0.0 mm
18:37 72 °F /  22.2 °C 50 °F /  10.0 °C 30.3 in /  1026.0 hPa North 1 mph /  1.6 km/h 7 mph /  11.3 km/h 46 % 0 in /  0.0 mm
18:42 72 °F /  22.2 °C 50 °F /  10.0 °C 30.3 in /  1026.0 hPa NNW 3 mph /  4.8 km/h 6 mph /  9.7 km/h 46 % 0 in /  0.0 mm
18:47 71.8 °F /  22.1 °C 50.5 °F /  10.3 °C 30.3 in /  1026.0 hPa NNW 5 mph /  8.0 km/h 8 mph /  12.9 km/h 47 % 0 in /  0.0 mm
18:52 72 °F /  22.2 °C 50 °F /  10.0 °C 30.3 in /  1026.0 hPa WNW 3 mph /  4.8 km/h 8 mph /  12.9 km/h 46 % 0 in /  0.0 mm
18:57 72 °F /  22.2 °C 50.7 °F /  10.4 °C 30.3 in /  1025.6 hPa North 4 mph /  6.4 km/h 8 mph /  12.9 km/h 47 % 0 in /  0.0 mm
19:02 72 °F /  22.2 °C 50.7 °F /  10.4 °C 30.3 in /  1025.6 hPa North 3 mph /  4.8 km/h 8 mph /  12.9 km/h 47 % 0 in /  0.0 mm
19:12 72 °F /  22.2 °C 51.3 °F /  10.7 °C 30.3 in /  1025.6 hPa NE 1 mph /  1.6 km/h 5 mph /  8.0 km/h 48 % 0 in /  0.0 mm
19:17 72 °F /  22.2 °C 50 °F /  10.0 °C 30.3 in /  1025.6 hPa North 2 mph /  3.2 km/h 5 mph /  8.0 km/h 46 % 0 in /  0.0 mm
19:22 71.4 °F /  21.9 °C 50.2 °F /  10.1 °C 30.3 in /  1026.0 hPa NNE 2 mph /  3.2 km/h 5 mph /  8.0 km/h 47 % 0 in /  0.0 mm
19:32 71.8 °F /  22.1 °C 49.8 °F /  9.9 °C 30.3 in /  1025.6 hPa NNW 1 mph /  1.6 km/h 5 mph /  8.0 km/h 46 % 0 in /  0.0 mm
19:37 72 °F /  22.2 °C 50 °F /  10.0 °C 30.3 in /  1025.6 hPa WNW 2 mph /  3.2 km/h 4 mph /  6.4 km/h 46 % 0 in /  0.0 mm
19:42 72 °F /  22.2 °C 50 °F /  10.0 °C 30.3 in /  1025.6 hPa Calm   3 mph /  4.8 km/h 46 % 0 in /  0.0 mm
19:47 72 °F /  22.2 °C 51.3 °F /  10.7 °C 30.3 in /  1025.6 hPa Calm   4 mph /  6.4 km/h 48 % 0 in /  0.0 mm
19:52 71.8 °F /  22.1 °C 51.1 °F /  10.6 °C 30.3 in /  1025.6 hPa West 1 mph /  1.6 km/h 4 mph /  6.4 km/h 48 % 0 in /  0.0 mm
20:02 71.4 °F /  21.9 °C 50.7 °F /  10.4 °C 30.3 in /  1025.6 hPa WNW 1 mph /  1.6 km/h 4 mph /  6.4 km/h 48 % 0 in /  0.0 mm
20:12 70.9 °F /  21.6 °C 51.3 °F /  10.7 °C 30.3 in /  1025.6 hPa NW 1 mph /  1.6 km/h 4 mph /  6.4 km/h 50 % 0 in /  0.0 mm
20:17 70.3 °F /  21.3 °C 51.4 °F /  10.8 °C 30.3 in /  1025.6 hPa NW 2 mph /  3.2 km/h 4 mph /  6.4 km/h 51 % 0 in /  0.0 mm
20:22 70.2 °F /  21.2 °C 51.8 °F /  11.0 °C 30.3 in /  1025.6 hPa Calm   4 mph /  6.4 km/h 52 % 0 in /  0.0 mm
20:32 69.4 °F /  20.8 °C 51.6 °F /  10.9 °C 30.3 in /  1025.6 hPa Calm   4 mph /  6.4 km/h 53 % 0 in /  0.0 mm
20:37 69.3 °F /  20.7 °C 51.4 °F /  10.8 °C 30.3 in /  1025.6 hPa Calm   2 mph /  3.2 km/h 53 % 0 in /  0.0 mm
20:42 68.7 °F /  20.4 °C 52 °F /  11.1 °C 30.3 in /  1025.6 hPa Calm   1 mph /  1.6 km/h 55 % 0 in /  0.0 mm
20:47 67.6 °F /  19.8 °C 52.9 °F /  11.6 °C 30.3 in /  1025.6 hPa NNE 1 mph /  1.6 km/h 1 mph /  1.6 km/h 59 % 0 in /  0.0 mm
20:52 66.6 °F /  19.2 °C 53.1 °F /  11.7 °C 30.3 in /  1026.0 hPa Calm   1 mph /  1.6 km/h 62 % 0 in /  0.0 mm
20:57 65.8 °F /  18.8 °C 52.5 °F /  11.4 °C 30.3 in /  1026.0 hPa Calm   2 mph /  3.2 km/h 62 % 0 in /  0.0 mm
21:02 65.5 °F /  18.6 °C 51.6 °F /  10.9 °C 30.3 in /  1026.0 hPa Calm   2 mph /  3.2 km/h 61 % 0 in /  0.0 mm
21:12 65.1 °F /  18.4 °C 52.2 °F /  11.2 °C 30.3 in /  1026.0 hPa Calm   2 mph /  3.2 km/h 63 % 0 in /  0.0 mm
21:17 64.8 °F /  18.2 °C 52.3 °F /  11.3 °C 30.3 in /  1026.0 hPa NNW 1 mph /  1.6 km/h 1 mph /  1.6 km/h 64 % 0 in /  0.0 mm
21:22 64.4 °F /  18.0 °C 52.3 °F /  11.3 °C 30.3 in /  1026.0 hPa Calm   1 mph /  1.6 km/h 65 % 0 in /  0.0 mm
21:32 63.5 °F /  17.5 °C 52.7 °F /  11.5 °C 30.3 in /  1026.0 hPa Calm   1 mph /  1.6 km/h 68 % 0 in /  0.0 mm
21:42 62.6 °F /  17.0 °C 52.3 °F /  11.3 °C 30.3 in /  1026.0 hPa Calm   1 mph /  1.6 km/h 69 % 0 in /  0.0 mm
21:52 62.1 °F /  16.7 °C 52.2 °F /  11.2 °C 30.3 in /  1026.0 hPa Calm   1 mph /  1.6 km/h 70 % 0 in /  0.0 mm
21:57 62.1 °F /  16.7 °C 52.5 °F /  11.4 °C 30.3 in /  1026.0 hPa NW 1 mph /  1.6 km/h 1 mph /  1.6 km/h 71 % 0 in /  0.0 mm
22:02 61.9 °F /  16.6 °C 52 °F /  11.1 °C 30.3 in /  1026.0 hPa NW 2 mph /  3.2 km/h 2 mph /  3.2 km/h 70 % 0 in /  0.0 mm
22:12 61.3 °F /  16.3 °C 51.4 °F /  10.8 °C 30.3 in /  1026.0 hPa Calm   2 mph /  3.2 km/h 70 % 0 in /  0.0 mm
22:22 60.6 °F /  15.9 °C 51.6 °F /  10.9 °C 30.3 in /  1026.0 hPa WNW 1 mph /  1.6 km/h 2 mph /  3.2 km/h 72 % 0 in /  0.0 mm
22:27 60.3 °F /  15.7 °C 51.6 °F /  10.9 °C 30.3 in /  1026.0 hPa WNW 1 mph /  1.6 km/h 2 mph /  3.2 km/h 73 % 0 in /  0.0 mm
22:32 60.1 °F /  15.6 °C 51.8 °F /  11.0 °C 30.3 in /  1026.0 hPa WNW 1 mph /  1.6 km/h 2 mph /  3.2 km/h 74 % 0 in /  0.0 mm
22:37 59.7 °F /  15.4 °C 52.2 °F /  11.2 °C 30.3 in /  1026.3 hPa WNW 1 mph /  1.6 km/h 2 mph /  3.2 km/h 76 % 0 in /  0.0 mm
22:42 59.4 °F /  15.2 °C 51.8 °F /  11.0 °C 30.3 in /  1026.3 hPa Calm   1 mph /  1.6 km/h 76 % 0 in /  0.0 mm
22:52 59.2 °F /  15.1 °C 52 °F /  11.1 °C 30.3 in /  1026.3 hPa Calm   1 mph /  1.6 km/h 77 % 0 in /  0.0 mm
23:02 59 °F /  15.0 °C 51.8 °F /  11.0 °C 30.3 in /  1026.3 hPa Calm   1 mph /  1.6 km/h 77 % 0 in /  0.0 mm
23:12 59 °F /  15.0 °C 51.8 °F /  11.0 °C 30.3 in /  1026.3 hPa Calm   1 mph /  1.6 km/h 77 % 0 in /  0.0 mm
23:17 58.6 °F /  14.8 °C 51.8 °F /  11.0 °C 30.3 in /  1026.3 hPa Calm     78 % 0 in /  0.0 mm
23:22 58.5 °F /  14.7 °C 52 °F /  11.1 °C 30.3 in /  1026.3 hPa NW 1 mph /  1.6 km/h   79 % 0 in /  0.0 mm
23:32 57.7 °F /  14.3 °C 52 °F /  11.1 °C 30.3 in /  1026.3 hPa WNW 1 mph /  1.6 km/h 1 mph /  1.6 km/h 81 % 0 in /  0.0 mm
23:42 57.6 °F /  14.2 °C 51.8 °F /  11.0 °C 30.3 in /  1026.0 hPa WNW 1 mph /  1.6 km/h 2 mph /  3.2 km/h 81 % 0 in /  0.0 mm
23:47 57.4 °F /  14.1 °C 51.6 °F /  10.9 °C 30.3 in /  1026.0 hPa Calm   2 mph /  3.2 km/h 81 % 0 in /  0.0 mm
23:52 57.4 °F /  14.1 °C 51.6 °F /  10.9 °C 30.3 in /  1026.0 hPa WNW 1 mph /  1.6 km/h -998.7 mph /  -1607.4 km/h 81 % 0 in /  0.0 mm
Meteo18
Compliments of Weather Underground - 4 mb

Script developed by  Jim McMurry - jmcmurry@mwt.net Adapted for the template by  Wim van der Kuil - Leuven-Template.eu

You find our weather info also at:

European Weather Network

Weather Underground

Equipment we use:

Weather-station
Davis Vue

Weather-program
Meteohub

Weather-server
Raspberry PI 2 B+

Provider
1 and 1

Davis Vue

Meteohub

Raspberry PI 2 B+

1 and 1